sensor_id;sensor_type;location;lat;lon;timestamp;pressure;altitude;pressure_sealevel;temperature;humidity
26937;BME280;14495;48.116;11.676;2023-06-22T00:00:52;95641.13;;;19.09;100.00
26937;BME280;14495;48.116;11.676;2023-06-22T00:03:22;95615.47;;;19.09;100.00
26937;BME280;14495;48.116;11.676;2023-06-22T00:05:48;95613.81;;;19.08;100.00
26937;BME280;14495;48.116;11.676;2023-06-22T00:08:14;95609.09;;;19.02;100.00
26937;BME280;14495;48.116;11.676;2023-06-22T00:10:40;95602.16;;;19.01;100.00
26937;BME280;14495;48.116;11.676;2023-06-22T00:13:07;95610.66;;;18.95;100.00
26937;BME280;14495;48.116;11.676;2023-06-22T00:15:33;95618.09;;;18.91;100.00
26937;BME280;14495;48.116;11.676;2023-06-22T00:17:59;95625.63;;;18.86;100.00
26937;BME280;14495;48.116;11.676;2023-06-22T00:20:25;95633.56;;;18.86;100.00
26937;BME280;14495;48.116;11.676;2023-06-22T00:22:56;95631.06;;;18.85;100.00
26937;BME280;14495;48.116;11.676;2023-06-22T00:25:22;95629.81;;;18.79;100.00
26937;BME280;14495;48.116;11.676;2023-06-22T00:27:50;95629.28;;;18.76;100.00
26937;BME280;14495;48.116;11.676;2023-06-22T00:30:18;95628.03;;;18.70;100.00
26937;BME280;14495;48.116;11.676;2023-06-22T00:32:47;95624.72;;;18.68;100.00
26937;BME280;14495;48.116;11.676;2023-06-22T00:35:12;95625.56;;;18.59;100.00
26937;BME280;14495;48.116;11.676;2023-06-22T00:37:38;95626.53;;;18.58;100.00
26937;BME280;14495;48.116;11.676;2023-06-22T00:40:10;95625.16;;;18.53;100.00
26937;BME280;14495;48.116;11.676;2023-06-22T00:42:40;95622.81;;;18.50;100.00
26937;BME280;14495;48.116;11.676;2023-06-22T00:45:09;95624.75;;;18.48;100.00
26937;BME280;14495;48.116;11.676;2023-06-22T00:47:37;95627.72;;;18.45;100.00
26937;BME280;14495;48.116;11.676;2023-06-22T00:50:06;95626.59;;;18.48;100.00
26937;BME280;14495;48.116;11.676;2023-06-22T00:52:32;95622.72;;;18.42;100.00
26937;BME280;14495;48.116;11.676;2023-06-22T00:55:02;95619.38;;;18.40;100.00
26937;BME280;14495;48.116;11.676;2023-06-22T00:57:28;95622.28;;;18.37;100.00
26937;BME280;14495;48.116;11.676;2023-06-22T00:59:54;95618.41;;;18.31;100.00
26937;BME280;14495;48.116;11.676;2023-06-22T01:02:20;95620.22;;;18.31;100.00
26937;BME280;14495;48.116;11.676;2023-06-22T01:04:45;95613.25;;;18.30;100.00
26937;BME280;14495;48.116;11.676;2023-06-22T01:07:24;95613.56;;;18.27;100.00
26937;BME280;14495;48.116;11.676;2023-06-22T01:10:07;95610.38;;;18.23;100.00
26937;BME280;14495;48.116;11.676;2023-06-22T01:12:40;95609.53;;;18.23;100.00
26937;BME280;14495;48.116;11.676;2023-06-22T01:15:13;95604.53;;;18.20;100.00
26937;BME280;14495;48.116;11.676;2023-06-22T01:17:43;95603.84;;;18.18;100.00
26937;BME280;14495;48.116;11.676;2023-06-22T01:20:10;95598.00;;;18.14;100.00
26937;BME280;14495;48.116;11.676;2023-06-22T01:22:49;95591.47;;;18.08;100.00
26937;BME280;14495;48.116;11.676;2023-06-22T01:25:26;95590.25;;;18.03;100.00
26937;BME280;14495;48.116;11.676;2023-06-22T01:27:58;95588.16;;;17.96;100.00
26937;BME280;14495;48.116;11.676;2023-06-22T01:30:29;95586.88;;;18.01;100.00
26937;BME280;14495;48.116;11.676;2023-06-22T01:32:57;95589.97;;;17.96;100.00
26937;BME280;14495;48.116;11.676;2023-06-22T01:35:23;95593.47;;;17.87;100.00
26937;BME280;14495;48.116;11.676;2023-06-22T01:37:52;95585.66;;;17.75;100.00
26937;BME280;14495;48.116;11.676;2023-06-22T01:40:18;95580.22;;;17.67;100.00
26937;BME280;14495;48.116;11.676;2023-06-22T01:42:47;95582.03;;;17.67;100.00
26937;BME280;14495;48.116;11.676;2023-06-22T01:45:14;95577.03;;;17.54;100.00
26937;BME280;14495;48.116;11.676;2023-06-22T01:47:40;95567.59;;;17.51;100.00
26937;BME280;14495;48.116;11.676;2023-06-22T01:50:06;95574.13;;;17.57;100.00
26937;BME280;14495;48.116;11.676;2023-06-22T01:52:32;95579.13;;;17.50;100.00
26937;BME280;14495;48.116;11.676;2023-06-22T01:54:59;95573.28;;;17.47;100.00
26937;BME280;14495;48.116;11.676;2023-06-22T01:57:26;95569.94;;;17.45;100.00
26937;BME280;14495;48.116;11.676;2023-06-22T02:00:05;95567.03;;;17.48;100.00
26937;BME280;14495;48.116;11.676;2023-06-22T02:02:43;95565.91;;;17.41;100.00
26937;BME280;14495;48.116;11.676;2023-06-22T02:05:18;95564.09;;;17.41;100.00
26937;BME280;14495;48.116;11.676;2023-06-22T02:07:52;95569.81;;;17.46;100.00
26937;BME280;14495;48.116;11.676;2023-06-22T02:10:23;95575.78;;;17.58;100.00
26937;BME280;14495;48.116;11.676;2023-06-22T02:12:50;95577.59;;;17.57;100.00
26937;BME280;14495;48.116;11.676;2023-06-22T02:15:16;95571.47;;;17.57;100.00
26937;BME280;14495;48.116;11.676;2023-06-22T02:17:47;95573.84;;;17.60;100.00
26937;BME280;14495;48.116;11.676;2023-06-22T02:20:16;95583.31;;;17.63;100.00
26937;BME280;14495;48.116;11.676;2023-06-22T02:22:41;95583.16;;;17.54;100.00
26937;BME280;14495;48.116;11.676;2023-06-22T02:25:07;95575.91;;;17.47;100.00
26937;BME280;14495;48.116;11.676;2023-06-22T02:27:33;95572.19;;;17.49;100.00
26937;BME280;14495;48.116;11.676;2023-06-22T02:29:58;95577.47;;;17.59;100.00
26937;BME280;14495;48.116;11.676;2023-06-22T02:32:24;95579.00;;;17.52;100.00
26937;BME280;14495;48.116;11.676;2023-06-22T02:34:49;95583.31;;;17.53;100.00
26937;BME280;14495;48.116;11.676;2023-06-22T02:37:17;95585.09;;;17.52;100.00
26937;BME280;14495;48.116;11.676;2023-06-22T02:39:42;95590.25;;;17.44;100.00
26937;BME280;14495;48.116;11.676;2023-06-22T02:42:09;95597.75;;;17.39;100.00
26937;BME280;14495;48.116;11.676;2023-06-22T02:44:36;95601.50;;;17.36;100.00
26937;BME280;14495;48.116;11.676;2023-06-22T02:47:02;95608.19;;;17.31;100.00
26937;BME280;14495;48.116;11.676;2023-06-22T02:49:27;95611.78;;;17.30;100.00
26937;BME280;14495;48.116;11.676;2023-06-22T02:51:53;95614.56;;;17.28;100.00
26937;BME280;14495;48.116;11.676;2023-06-22T02:54:19;95616.94;;;17.22;100.00
26937;BME280;14495;48.116;11.676;2023-06-22T02:56:44;95614.69;;;17.17;100.00
26937;BME280;14495;48.116;11.676;2023-06-22T02:59:10;95613.97;;;17.15;100.00
26937;BME280;14495;48.116;11.676;2023-06-22T03:01:36;95614.25;;;17.12;100.00
26937;BME280;14495;48.116;11.676;2023-06-22T03:04:10;95605.91;;;17.07;100.00
26937;BME280;14495;48.116;11.676;2023-06-22T03:06:36;95603.00;;;17.10;100.00
26937;BME280;14495;48.116;11.676;2023-06-22T03:09:03;95602.59;;;17.05;100.00
26937;BME280;14495;48.116;11.676;2023-06-22T03:11:30;95609.09;;;17.00;100.00
26937;BME280;14495;48.116;11.676;2023-06-22T03:13:56;95604.47;;;16.93;100.00
26937;BME280;14495;48.116;11.676;2023-06-22T03:16:21;95601.81;;;16.83;100.00
26937;BME280;14495;48.116;11.676;2023-06-22T03:18:47;95608.44;;;16.68;100.00
26937;BME280;14495;48.116;11.676;2023-06-22T03:21:12;95607.00;;;16.63;100.00
26937;BME280;14495;48.116;11.676;2023-06-22T03:23:37;95612.28;;;16.63;100.00
26937;BME280;14495;48.116;11.676;2023-06-22T03:26:03;95609.81;;;16.72;100.00
26937;BME280;14495;48.116;11.676;2023-06-22T03:28:29;95603.16;;;16.77;100.00
26937;BME280;14495;48.116;11.676;2023-06-22T03:30:56;95602.34;;;16.77;100.00
26937;BME280;14495;48.116;11.676;2023-06-22T03:33:22;95597.06;;;16.77;100.00
26937;BME280;14495;48.116;11.676;2023-06-22T03:35:47;95595.03;;;16.90;100.00
26937;BME280;14495;48.116;11.676;2023-06-22T03:38:12;95601.84;;;16.93;100.00
26937;BME280;14495;48.116;11.676;2023-06-22T03:40:38;95591.47;;;17.01;100.00
26937;BME280;14495;48.116;11.676;2023-06-22T03:43:03;95597.31;;;17.05;100.00
26937;BME280;14495;48.116;11.676;2023-06-22T03:45:29;95598.69;;;17.09;100.00
26937;BME280;14495;48.116;11.676;2023-06-22T03:47:54;95604.41;;;17.14;100.00
26937;BME280;14495;48.116;11.676;2023-06-22T03:50:19;95605.81;;;17.18;100.00
26937;BME280;14495;48.116;11.676;2023-06-22T03:52:46;95604.81;;;17.19;100.00
26937;BME280;14495;48.116;11.676;2023-06-22T03:55:11;95603.28;;;17.26;100.00
26937;BME280;14495;48.116;11.676;2023-06-22T03:57:36;95603.28;;;17.26;100.00
26937;BME280;14495;48.116;11.676;2023-06-22T04:00:02;95602.47;;;17.35;100.00
26937;BME280;14495;48.116;11.676;2023-06-22T04:02:31;95603.72;;;17.41;100.00
26937;BME280;14495;48.116;11.676;2023-06-22T04:04:56;95604.44;;;17.53;100.00
26937;BME280;14495;48.116;11.676;2023-06-22T04:07:24;95599.97;;;17.63;100.00
26937;BME280;14495;48.116;11.676;2023-06-22T04:09:49;95612.09;;;17.75;100.00
26937;BME280;14495;48.116;11.676;2023-06-22T04:12:15;95620.31;;;17.92;100.00
26937;BME280;14495;48.116;11.676;2023-06-22T04:14:40;95619.47;;;18.01;100.00
26937;BME280;14495;48.116;11.676;2023-06-22T04:17:06;95606.78;;;18.14;100.00
26937;BME280;14495;48.116;11.676;2023-06-22T04:19:32;95607.72;;;18.23;100.00
26937;BME280;14495;48.116;11.676;2023-06-22T04:21:57;95610.06;;;18.36;100.00
26937;BME280;14495;48.116;11.676;2023-06-22T04:24:23;95605.75;;;18.35;100.00
26937;BME280;14495;48.116;11.676;2023-06-22T04:26:48;95590.28;;;18.40;100.00
26937;BME280;14495;48.116;11.676;2023-06-22T04:29:13;95594.94;;;18.56;100.00
26937;BME280;14495;48.116;11.676;2023-06-22T04:31:40;95593.38;;;18.63;100.00
26937;BME280;14495;48.116;11.676;2023-06-22T04:34:07;95590.81;;;18.81;100.00
26937;BME280;14495;48.116;11.676;2023-06-22T04:36:42;95588.56;;;18.86;100.00
26937;BME280;14495;48.116;11.676;2023-06-22T04:39:11;95595.16;;;19.00;100.00
26937;BME280;14495;48.116;11.676;2023-06-22T04:41:37;95598.22;;;19.05;100.00
26937;BME280;14495;48.116;11.676;2023-06-22T04:44:15;95597.75;;;19.10;100.00
26937;BME280;14495;48.116;11.676;2023-06-22T04:46:49;95598.94;;;19.25;100.00
26937;BME280;14495;48.116;11.676;2023-06-22T04:49:21;95596.06;;;19.37;100.00
26937;BME280;14495;48.116;11.676;2023-06-22T04:51:47;95588.88;;;19.29;100.00
26937;BME280;14495;48.116;11.676;2023-06-22T04:54:13;95594.56;;;19.34;100.00
26937;BME280;14495;48.116;11.676;2023-06-22T04:56:38;95581.53;;;19.41;100.00
26937;BME280;14495;48.116;11.676;2023-06-22T04:59:06;95582.00;;;19.36;100.00
26937;BME280;14495;48.116;11.676;2023-06-22T05:01:32;95588.34;;;19.43;100.00
26937;BME280;14495;48.116;11.676;2023-06-22T05:03:57;95585.28;;;19.56;100.00
26937;BME280;14495;48.116;11.676;2023-06-22T05:06:26;95589.78;;;19.56;100.00
26937;BME280;14495;48.116;11.676;2023-06-22T05:08:55;95574.81;;;19.82;100.00
26937;BME280;14495;48.116;11.676;2023-06-22T05:11:27;95579.72;;;19.95;100.00
26937;BME280;14495;48.116;11.676;2023-06-22T05:13:53;95572.84;;;20.11;100.00
26937;BME280;14495;48.116;11.676;2023-06-22T05:16:20;95573.63;;;20.03;100.00
26937;BME280;14495;48.116;11.676;2023-06-22T05:18:56;95576.06;;;19.96;100.00
26937;BME280;14495;48.116;11.676;2023-06-22T05:21:28;95563.22;;;20.09;100.00
26937;BME280;14495;48.116;11.676;2023-06-22T05:23:53;95566.06;;;20.16;100.00
26937;BME280;14495;48.116;11.676;2023-06-22T05:26:20;95571.94;;;20.02;100.00
26937;BME280;14495;48.116;11.676;2023-06-22T05:28:48;95574.97;;;20.33;100.00
26937;BME280;14495;48.116;11.676;2023-06-22T05:31:15;95568.06;;;20.48;100.00
26937;BME280;14495;48.116;11.676;2023-06-22T05:33:45;95576.09;;;20.91;100.00
26937;BME280;14495;48.116;11.676;2023-06-22T05:36:11;95570.53;;;21.19;100.00
26937;BME280;14495;48.116;11.676;2023-06-22T05:38:38;95574.34;;;21.24;100.00
26937;BME280;14495;48.116;11.676;2023-06-22T05:41:03;95573.94;;;21.46;100.00
26937;BME280;14495;48.116;11.676;2023-06-22T05:43:29;95572.13;;;21.54;100.00
26937;BME280;14495;48.116;11.676;2023-06-22T05:45:54;95568.78;;;21.52;100.00
26937;BME280;14495;48.116;11.676;2023-06-22T05:48:20;95569.47;;;21.79;100.00
26937;BME280;14495;48.116;11.676;2023-06-22T05:50:50;95568.63;;;21.95;100.00
26937;BME280;14495;48.116;11.676;2023-06-22T05:53:15;95574.28;;;21.84;100.00
26937;BME280;14495;48.116;11.676;2023-06-22T05:55:41;95580.09;;;21.79;100.00
26937;BME280;14495;48.116;11.676;2023-06-22T05:58:09;95562.47;;;22.03;100.00
26937;BME280;14495;48.116;11.676;2023-06-22T06:00:35;95562.06;;;22.47;100.00
26937;BME280;14495;48.116;11.676;2023-06-22T06:03:02;95568.88;;;23.37;100.00
26937;BME280;14495;48.116;11.676;2023-06-22T06:05:29;95574.09;;;24.82;100.00
26937;BME280;14495;48.116;11.676;2023-06-22T06:07:55;95576.25;;;26.52;100.00
26937;BME280;14495;48.116;11.676;2023-06-22T06:10:22;95575.78;;;27.80;100.00
26937;BME280;14495;48.116;11.676;2023-06-22T06:12:48;95566.13;;;28.12;99.34
26937;BME280;14495;48.116;11.676;2023-06-22T06:15:13;95568.00;;;28.32;93.19
26937;BME280;14495;48.116;11.676;2023-06-22T06:17:49;95558.56;;;27.34;92.35
26937;BME280;14495;48.116;11.676;2023-06-22T06:20:15;95564.38;;;28.91;86.82
26937;BME280;14495;48.116;11.676;2023-06-22T06:22:43;95560.50;;;28.41;86.92
26937;BME280;14495;48.116;11.676;2023-06-22T06:25:09;95556.50;;;28.97;82.94
26937;BME280;14495;48.116;11.676;2023-06-22T06:27:34;95555.69;;;29.80;80.84
26937;BME280;14495;48.116;11.676;2023-06-22T06:30:01;95554.63;;;30.13;77.27
26937;BME280;14495;48.116;11.676;2023-06-22T06:32:27;95553.47;;;29.70;75.67
26937;BME280;14495;48.116;11.676;2023-06-22T06:34:52;95550.00;;;30.20;74.40
26937;BME280;14495;48.116;11.676;2023-06-22T06:37:17;95560.88;;;29.81;74.66
26937;BME280;14495;48.116;11.676;2023-06-22T06:39:44;95539.19;;;30.89;73.23
26937;BME280;14495;48.116;11.676;2023-06-22T06:42:09;95537.91;;;31.89;68.94
26937;BME280;14495;48.116;11.676;2023-06-22T06:44:36;95543.38;;;31.70;69.23
26937;BME280;14495;48.116;11.676;2023-06-22T06:47:03;95544.88;;;31.96;65.28
26937;BME280;14495;48.116;11.676;2023-06-22T06:49:29;95545.28;;;32.47;63.03
26937;BME280;14495;48.116;11.676;2023-06-22T06:51:54;95543.06;;;31.78;63.83
26937;BME280;14495;48.116;11.676;2023-06-22T06:54:21;95539.16;;;32.05;63.70
26937;BME280;14495;48.116;11.676;2023-06-22T06:56:46;95535.28;;;32.48;61.59
26937;BME280;14495;48.116;11.676;2023-06-22T06:59:14;95528.66;;;31.96;62.74
26937;BME280;14495;48.116;11.676;2023-06-22T07:01:44;95536.28;;;31.88;62.38
26937;BME280;14495;48.116;11.676;2023-06-22T07:04:10;95541.38;;;33.02;59.92
26937;BME280;14495;48.116;11.676;2023-06-22T07:06:37;95550.28;;;33.26;58.47
26937;BME280;14495;48.116;11.676;2023-06-22T07:09:03;95541.88;;;32.87;60.82
26937;BME280;14495;48.116;11.676;2023-06-22T07:11:28;95551.06;;;32.51;59.35
26937;BME280;14495;48.116;11.676;2023-06-22T07:13:54;95541.41;;;32.43;59.61
26937;BME280;14495;48.116;11.676;2023-06-22T07:16:19;95541.69;;;33.58;57.64
26937;BME280;14495;48.116;11.676;2023-06-22T07:18:44;95551.34;;;33.83;56.10
26937;BME280;14495;48.116;11.676;2023-06-22T07:21:10;95546.03;;;34.05;55.71
26937;BME280;14495;48.116;11.676;2023-06-22T07:23:47;95543.06;;;33.89;55.42
26937;BME280;14495;48.116;11.676;2023-06-22T07:26:12;95536.72;;;33.55;54.50
26937;BME280;14495;48.116;11.676;2023-06-22T07:28:38;95538.91;;;32.89;58.68
26937;BME280;14495;48.116;11.676;2023-06-22T07:31:06;95533.00;;;33.16;57.84
26937;BME280;14495;48.116;11.676;2023-06-22T07:33:31;95536.56;;;34.19;54.63
26937;BME280;14495;48.116;11.676;2023-06-22T07:35:58;95528.63;;;34.91;53.22
26937;BME280;14495;48.116;11.676;2023-06-22T07:38:23;95531.19;;;34.97;52.05
26937;BME280;14495;48.116;11.676;2023-06-22T07:40:49;95518.00;;;35.06;51.80
26937;BME280;14495;48.116;11.676;2023-06-22T07:43:16;95522.78;;;33.46;52.70
26937;BME280;14495;48.116;11.676;2023-06-22T07:45:48;95515.63;;;33.69;52.71
26937;BME280;14495;48.116;11.676;2023-06-22T07:48:17;95508.28;;;33.41;52.90
26937;BME280;14495;48.116;11.676;2023-06-22T07:50:45;95499.63;;;33.84;52.63
26937;BME280;14495;48.116;11.676;2023-06-22T07:53:11;95502.84;;;33.53;52.59
26937;BME280;14495;48.116;11.676;2023-06-22T07:55:36;95497.75;;;32.87;53.02
26937;BME280;14495;48.116;11.676;2023-06-22T07:58:04;95504.59;;;34.60;51.04
26937;BME280;14495;48.116;11.676;2023-06-22T08:00:33;95510.78;;;33.71;51.34
26937;BME280;14495;48.116;11.676;2023-06-22T08:02:59;95507.59;;;33.05;52.42
26937;BME280;14495;48.116;11.676;2023-06-22T08:05:27;95507.34;;;31.76;56.40
26937;BME280;14495;48.116;11.676;2023-06-22T08:07:53;95512.22;;;32.57;53.25
26937;BME280;14495;48.116;11.676;2023-06-22T08:10:19;95512.19;;;31.86;53.57
26937;BME280;14495;48.116;11.676;2023-06-22T08:12:44;95508.84;;;31.72;54.49
26937;BME280;14495;48.116;11.676;2023-06-22T08:15:10;95505.63;;;30.84;56.39
26937;BME280;14495;48.116;11.676;2023-06-22T08:17:38;95507.88;;;30.51;58.25
26937;BME280;14495;48.116;11.676;2023-06-22T08:20:04;95506.19;;;29.81;58.31
26937;BME280;14495;48.116;11.676;2023-06-22T08:22:43;95507.50;;;29.33;59.17
26937;BME280;14495;48.116;11.676;2023-06-22T08:25:09;95500.44;;;29.71;61.74
26937;BME280;14495;48.116;11.676;2023-06-22T08:27:34;95505.69;;;29.59;59.90
26937;BME280;14495;48.116;11.676;2023-06-22T08:30:01;95497.69;;;29.14;61.64
26937;BME280;14495;48.116;11.676;2023-06-22T08:32:30;95498.22;;;28.84;61.75
26937;BME280;14495;48.116;11.676;2023-06-22T08:34:57;95494.81;;;29.15;61.37
26937;BME280;14495;48.116;11.676;2023-06-22T08:37:23;95497.38;;;29.67;62.43
26937;BME280;14495;48.116;11.676;2023-06-22T08:39:57;95495.66;;;29.73;61.79
26937;BME280;14495;48.116;11.676;2023-06-22T08:42:22;95498.75;;;28.99;61.92
26937;BME280;14495;48.116;11.676;2023-06-22T08:44:51;95495.53;;;29.29;62.51
26937;BME280;14495;48.116;11.676;2023-06-22T08:47:19;95495.34;;;29.56;61.50
26937;BME280;14495;48.116;11.676;2023-06-22T08:49:46;95496.09;;;28.92;62.00
26937;BME280;14495;48.116;11.676;2023-06-22T08:52:15;95491.53;;;29.45;61.67
26937;BME280;14495;48.116;11.676;2023-06-22T08:54:41;95487.38;;;29.74;60.25
26937;BME280;14495;48.116;11.676;2023-06-22T08:57:06;95492.06;;;30.11;62.79
26937;BME280;14495;48.116;11.676;2023-06-22T08:59:32;95481.34;;;31.03;61.14
26937;BME280;14495;48.116;11.676;2023-06-22T09:01:57;95482.28;;;30.60;60.09
26937;BME280;14495;48.116;11.676;2023-06-22T09:04:23;95486.09;;;30.89;60.75
26937;BME280;14495;48.116;11.676;2023-06-22T09:06:49;95480.44;;;30.72;58.15
26937;BME280;14495;48.116;11.676;2023-06-22T09:09:16;95489.59;;;30.34;57.39
26937;BME280;14495;48.116;11.676;2023-06-22T09:11:41;95475.25;;;29.90;58.98
26937;BME280;14495;48.116;11.676;2023-06-22T09:14:07;95481.13;;;29.80;58.50
26937;BME280;14495;48.116;11.676;2023-06-22T09:16:35;95480.69;;;30.09;57.89
26937;BME280;14495;48.116;11.676;2023-06-22T09:19:01;95477.16;;;30.52;57.62
26937;BME280;14495;48.116;11.676;2023-06-22T09:21:27;95475.97;;;30.84;57.11
26937;BME280;14495;48.116;11.676;2023-06-22T09:23:53;95464.75;;;31.18;58.30
26937;BME280;14495;48.116;11.676;2023-06-22T09:26:18;95474.47;;;31.37;57.40
26937;BME280;14495;48.116;11.676;2023-06-22T09:28:44;95474.63;;;30.57;58.23
26937;BME280;14495;48.116;11.676;2023-06-22T09:31:12;95472.66;;;30.82;57.33
26937;BME280;14495;48.116;11.676;2023-06-22T09:33:37;95466.91;;;30.79;57.31
26937;BME280;14495;48.116;11.676;2023-06-22T09:36:06;95451.22;;;31.06;56.21
26937;BME280;14495;48.116;11.676;2023-06-22T09:38:43;95456.94;;;30.98;57.69
26937;BME280;14495;48.116;11.676;2023-06-22T09:41:08;95454.16;;;31.05;58.35
26937;BME280;14495;48.116;11.676;2023-06-22T09:43:34;95456.69;;;31.30;56.81
26937;BME280;14495;48.116;11.676;2023-06-22T09:46:03;95456.47;;;31.62;58.14
26937;BME280;14495;48.116;11.676;2023-06-22T09:48:28;95456.44;;;31.19;56.86
26937;BME280;14495;48.116;11.676;2023-06-22T09:50:55;95453.59;;;31.45;57.16
26937;BME280;14495;48.116;11.676;2023-06-22T09:53:20;95449.19;;;31.74;56.22
26937;BME280;14495;48.116;11.676;2023-06-22T09:55:48;95445.91;;;31.60;56.01
26937;BME280;14495;48.116;11.676;2023-06-22T09:58:15;95445.09;;;31.59;56.18
26937;BME280;14495;48.116;11.676;2023-06-22T10:00:41;95443.22;;;31.95;55.62
26937;BME280;14495;48.116;11.676;2023-06-22T10:03:09;95446.97;;;31.71;55.97
26937;BME280;14495;48.116;11.676;2023-06-22T10:05:34;95437.22;;;31.58;54.50
26937;BME280;14495;48.116;11.676;2023-06-22T10:07:59;95437.09;;;31.65;55.55
26937;BME280;14495;48.116;11.676;2023-06-22T10:10:25;95442.38;;;31.59;56.90
26937;BME280;14495;48.116;11.676;2023-06-22T10:13:03;95431.81;;;31.82;57.18
26937;BME280;14495;48.116;11.676;2023-06-22T10:15:32;95433.34;;;31.77;55.81
26937;BME280;14495;48.116;11.676;2023-06-22T10:17:57;95430.09;;;31.87;55.45
26937;BME280;14495;48.116;11.676;2023-06-22T10:20:23;95427.44;;;31.57;56.39
26937;BME280;14495;48.116;11.676;2023-06-22T10:22:48;95422.56;;;31.89;55.87
26937;BME280;14495;48.116;11.676;2023-06-22T10:25:16;95424.91;;;31.97;55.63
26937;BME280;14495;48.116;11.676;2023-06-22T10:27:41;95422.19;;;31.97;54.01
26937;BME280;14495;48.116;11.676;2023-06-22T10:30:08;95414.69;;;31.88;54.70
26937;BME280;14495;48.116;11.676;2023-06-22T10:32:34;95422.56;;;32.36;53.67
26937;BME280;14495;48.116;11.676;2023-06-22T10:34:59;95431.03;;;32.28;53.01
26937;BME280;14495;48.116;11.676;2023-06-22T10:37:25;95419.72;;;31.96;53.07
26937;BME280;14495;48.116;11.676;2023-06-22T10:39:50;95413.88;;;32.23;53.78
26937;BME280;14495;48.116;11.676;2023-06-22T10:42:16;95416.69;;;32.40;53.54
26937;BME280;14495;48.116;11.676;2023-06-22T10:44:41;95411.72;;;32.60;52.04
26937;BME280;14495;48.116;11.676;2023-06-22T10:47:09;95410.75;;;32.66;52.47
26937;BME280;14495;48.116;11.676;2023-06-22T10:49:40;95403.25;;;32.97;51.82
26937;BME280;14495;48.116;11.676;2023-06-22T10:52:07;95405.69;;;32.70;52.17
26937;BME280;14495;48.116;11.676;2023-06-22T10:54:33;95407.25;;;32.42;53.46
26937;BME280;14495;48.116;11.676;2023-06-22T10:57:00;95412.53;;;32.72;53.99
26937;BME280;14495;48.116;11.676;2023-06-22T10:59:26;95396.56;;;33.17;51.27
26937;BME280;14495;48.116;11.676;2023-06-22T11:01:55;95389.69;;;33.26;51.81
26937;BME280;14495;48.116;11.676;2023-06-22T11:04:21;95394.75;;;33.68;52.39
26937;BME280;14495;48.116;11.676;2023-06-22T11:06:48;95382.91;;;33.40;51.60
26937;BME280;14495;48.116;11.676;2023-06-22T11:09:14;95385.25;;;33.65;49.78
26937;BME280;14495;48.116;11.676;2023-06-22T11:11:44;95381.97;;;33.80;51.31
26937;BME280;14495;48.116;11.676;2023-06-22T11:14:12;95392.88;;;32.94;51.64
26937;BME280;14495;48.116;11.676;2023-06-22T11:16:37;95391.28;;;33.39;50.81
26937;BME280;14495;48.116;11.676;2023-06-22T11:19:04;95390.66;;;33.48;51.13
26937;BME280;14495;48.116;11.676;2023-06-22T11:21:30;95388.66;;;33.61;52.26
26937;BME280;14495;48.116;11.676;2023-06-22T11:23:56;95386.78;;;33.61;50.76
26937;BME280;14495;48.116;11.676;2023-06-22T11:26:22;95381.28;;;33.56;50.78
26937;BME280;14495;48.116;11.676;2023-06-22T11:28:47;95385.84;;;33.39;51.40
26937;BME280;14495;48.116;11.676;2023-06-22T11:31:12;95375.44;;;33.02;51.52
26937;BME280;14495;48.116;11.676;2023-06-22T11:33:38;95383.81;;;33.29;51.04
26937;BME280;14495;48.116;11.676;2023-06-22T11:36:03;95375.69;;;33.97;50.43
26937;BME280;14495;48.116;11.676;2023-06-22T11:38:29;95368.22;;;34.43;49.81
26937;BME280;14495;48.116;11.676;2023-06-22T11:40:57;95374.53;;;33.93;49.50
26937;BME280;14495;48.116;11.676;2023-06-22T11:43:22;95360.69;;;34.11;49.08
26937;BME280;14495;48.116;11.676;2023-06-22T11:45:47;95366.72;;;33.96;50.26
26937;BME280;14495;48.116;11.676;2023-06-22T11:48:13;95354.97;;;34.07;51.48
26937;BME280;14495;48.116;11.676;2023-06-22T11:50:38;95352.50;;;34.23;49.92
26937;BME280;14495;48.116;11.676;2023-06-22T11:53:04;95352.66;;;34.60;50.29
26937;BME280;14495;48.116;11.676;2023-06-22T11:55:29;95349.56;;;34.52;50.47
26937;BME280;14495;48.116;11.676;2023-06-22T11:57:56;95356.47;;;34.59;49.08
26937;BME280;14495;48.116;11.676;2023-06-22T12:00:24;95345.88;;;34.36;50.05
26937;BME280;14495;48.116;11.676;2023-06-22T12:02:51;95348.59;;;34.58;50.88
26937;BME280;14495;48.116;11.676;2023-06-22T12:05:21;95337.91;;;33.90;50.95
26937;BME280;14495;48.116;11.676;2023-06-22T12:07:47;95340.97;;;34.16;51.28
26937;BME280;14495;48.116;11.676;2023-06-22T12:10:13;95345.34;;;34.39;50.86
26937;BME280;14495;48.116;11.676;2023-06-22T12:12:38;95337.19;;;34.34;50.83
26937;BME280;14495;48.116;11.676;2023-06-22T12:15:05;95330.59;;;34.30;50.67
26937;BME280;14495;48.116;11.676;2023-06-22T12:17:31;95329.59;;;34.36;50.61
26937;BME280;14495;48.116;11.676;2023-06-22T12:19:56;95320.97;;;34.00;51.32
26937;BME280;14495;48.116;11.676;2023-06-22T12:22:22;95324.91;;;33.70;52.07
26937;BME280;14495;48.116;11.676;2023-06-22T12:24:47;95318.91;;;34.07;51.21
26937;BME280;14495;48.116;11.676;2023-06-22T12:27:13;95312.50;;;34.35;51.24
26937;BME280;14495;48.116;11.676;2023-06-22T12:29:41;95309.88;;;34.67;50.45
26937;BME280;14495;48.116;11.676;2023-06-22T12:32:09;95307.59;;;34.81;50.20
26937;BME280;14495;48.116;11.676;2023-06-22T12:34:34;95298.34;;;34.77;49.98
26937;BME280;14495;48.116;11.676;2023-06-22T12:36:59;95299.44;;;34.54;49.77
26937;BME280;14495;48.116;11.676;2023-06-22T12:39:25;95298.75;;;34.91;49.66
26937;BME280;14495;48.116;11.676;2023-06-22T12:41:50;95291.56;;;35.07;50.00
26937;BME280;14495;48.116;11.676;2023-06-22T12:44:15;95293.28;;;34.86;48.50